This is the latest recevied weather packets stored in our database for station/object KI5BDI. If no packets are shown the sender has not sent any weather packets the latest 10 day(s).
| Time | Temp. | Humidity | Pressure | Rain* | Wind** | Luminosity | Snow |
|---|---|---|---|---|---|---|---|
| 1777407920 | 27.22° C | 84% | 1009.7 hPa | 0 mm | - | 248 W/m² | - |
| 1777404317 | 26.11° C | 86% | 1011.6 hPa | 0 mm | - | 191 W/m² | - |
| 1777403717 | 26.11° C | 87% | 1011.6 hPa | 0 mm | - | 168 W/m² | - |
| 1777400142 | 25.56° C | 88% | 1012.2 hPa | 0 mm | - | 96 W/m² | - |
| 1777397722 | 26.67° C | 86% | 1012.7 hPa | 0 mm | - | 88 W/m² | - |
| 1777395919 | 26.67° C | 85% | 1012.8 hPa | 0 mm | - | 166 W/m² | - |
| 1777395319 | 26.67° C | 85% | 1012.7 hPa | 0 mm | - | 224 W/m² | - |
| 1777392920 | 26.11° C | 88% | 1012.6 hPa | 0 mm | - | 142 W/m² | - |
| 1777389323 | 25° C | 92% | 1012.4 hPa | 0 mm | - | 95 W/m² | - |
| 1777387522 | 25° C | 92% | 1012.5 hPa | 0 mm | - | 107 W/m² | - |
| 1777386324 | 24.44° C | 92% | 1012.5 hPa | 0 mm | - | 66 W/m² | - |
| 1777385723 | 24.44° C | 92% | 1012.4 hPa | 0 mm | - | 49 W/m² | - |
| 1777385124 | 24.44° C | 92% | 1012.2 hPa | 0 mm | - | 90 W/m² | - |
| 1777382722 | 24.44° C | 92% | 1012 hPa | 0 mm | - | 43 W/m² | - |
| 1777380922 | 24.44° C | 92% | 1011.6 hPa | 0 mm | - | 26 W/m² | - |
| 1777377343 | 24.44° C | 92% | 1011 hPa | 0 mm | - | 2 W/m² | - |
| 1777374919 | 24.44° C | 92% | 1010.9 hPa | 0 mm | - | 0 W/m² | - |
| 1777373118 | 24.44° C | 92% | 1010.6 hPa | 0 mm | - | 0 W/m² | - |
| 1777370119 | 24.44° C | 92% | 1010.4 hPa | 0 mm | - | 0 W/m² | - |
| 1777363517 | 24.44° C | 94% | 1009.9 hPa | 0 mm | - | 0 W/m² | - |
| 1777362322 | 24.44° C | 95% | 1010.2 hPa | 0 mm | - | 0 W/m² | - |
| 1777359321 | 24.44° C | 96% | 1010.7 hPa | 0 mm | - | 0 W/m² | - |
| 1777357531 | 24.44° C | 95% | 1011 hPa | 0 mm | - | 0 W/m² | - |
| 1777356923 | 24.44° C | 95% | 1011 hPa | 0 mm | - | 0 W/m² | - |
| 1777349118 | 24.44° C | 94% | 1011.1 hPa | 0 mm | - | 0 W/m² | - |
* Rain latest hour (hover to see other rain measurements)
** Current wind speed in m/s (hover to see current wind gust speed)